sensor_id;sensor_type;location;lat;lon;timestamp;temperature;humidity
41533;DHT22;27262;-35.248;149.138;2023-04-10T00:02:27;18.90;68.50
41533;DHT22;27262;-35.248;149.138;2023-04-10T00:05:00;18.90;68.50
41533;DHT22;27262;-35.248;149.138;2023-04-10T00:07:30;18.90;68.60
41533;DHT22;27262;-35.248;149.138;2023-04-10T00:10:01;18.90;68.80
41533;DHT22;27262;-35.248;149.138;2023-04-10T00:12:32;19.00;68.90
41533;DHT22;27262;-35.248;149.138;2023-04-10T00:15:02;19.00;69.00
41533;DHT22;27262;-35.248;149.138;2023-04-10T00:17:33;19.00;69.10
41533;DHT22;27262;-35.248;149.138;2023-04-10T00:20:03;19.10;69.10
41533;DHT22;27262;-35.248;149.138;2023-04-10T00:22:33;19.10;69.80
41533;DHT22;27262;-35.248;149.138;2023-04-10T00:25:04;19.10;69.10
41533;DHT22;27262;-35.248;149.138;2023-04-10T00:27:35;19.10;69.00
41533;DHT22;27262;-35.248;149.138;2023-04-10T00:30:05;19.20;69.10
41533;DHT22;27262;-35.248;149.138;2023-04-10T00:32:36;19.20;69.20
41533;DHT22;27262;-35.248;149.138;2023-04-10T00:35:08;19.20;69.20
41533;DHT22;27262;-35.248;149.138;2023-04-10T00:37:38;19.20;69.90
41533;DHT22;27262;-35.248;149.138;2023-04-10T00:40:09;19.20;69.30
41533;DHT22;27262;-35.248;149.138;2023-04-10T00:42:39;19.20;69.30
41533;DHT22;27262;-35.248;149.138;2023-04-10T00:45:10;19.20;69.30
41533;DHT22;27262;-35.248;149.138;2023-04-10T00:47:40;19.20;69.40
41533;DHT22;27262;-35.248;149.138;2023-04-10T00:50:11;19.10;69.20
41533;DHT22;27262;-35.248;149.138;2023-04-10T00:52:41;19.20;69.30
41533;DHT22;27262;-35.248;149.138;2023-04-10T00:55:11;19.10;69.20
41533;DHT22;27262;-35.248;149.138;2023-04-10T00:57:46;19.10;69.20
41533;DHT22;27262;-35.248;149.138;2023-04-10T01:00:17;19.10;69.20
41533;DHT22;27262;-35.248;149.138;2023-04-10T01:02:47;19.10;69.30
41533;DHT22;27262;-35.248;149.138;2023-04-10T01:05:17;19.10;69.20
41533;DHT22;27262;-35.248;149.138;2023-04-10T01:10:35;19.10;69.30
41533;DHT22;27262;-35.248;149.138;2023-04-10T01:13:22;19.10;69.20
41533;DHT22;27262;-35.248;149.138;2023-04-10T01:16:00;19.20;69.30
41533;DHT22;27262;-35.248;149.138;2023-04-10T01:18:38;19.10;69.30
41533;DHT22;27262;-35.248;149.138;2023-04-10T01:21:11;19.10;69.30
41533;DHT22;27262;-35.248;149.138;2023-04-10T01:29:17;19.10;69.40
41533;DHT22;27262;-35.248;149.138;2023-04-10T01:32:13;19.10;69.30
41533;DHT22;27262;-35.248;149.138;2023-04-10T01:34:48;19.10;69.20
41533;DHT22;27262;-35.248;149.138;2023-04-10T01:37:30;19.10;69.40
41533;DHT22;27262;-35.248;149.138;2023-04-10T01:40:04;19.10;69.30
41533;DHT22;27262;-35.248;149.138;2023-04-10T01:42:46;19.10;69.40
41533;DHT22;27262;-35.248;149.138;2023-04-10T01:45:20;19.10;69.40
41533;DHT22;27262;-35.248;149.138;2023-04-10T01:47:52;19.10;69.40
41533;DHT22;27262;-35.248;149.138;2023-04-10T01:50:24;19.10;69.30
41533;DHT22;27262;-35.248;149.138;2023-04-10T01:52:57;19.10;69.40
41533;DHT22;27262;-35.248;149.138;2023-04-10T01:55:28;19.10;69.30
41533;DHT22;27262;-35.248;149.138;2023-04-10T01:58:00;19.10;69.30
41533;DHT22;27262;-35.248;149.138;2023-04-10T02:00:37;19.10;69.40
41533;DHT22;27262;-35.248;149.138;2023-04-10T02:03:09;19.10;69.30
41533;DHT22;27262;-35.248;149.138;2023-04-10T02:08:43;19.10;69.20
41533;DHT22;27262;-35.248;149.138;2023-04-10T02:14:15;19.10;69.30
41533;DHT22;27262;-35.248;149.138;2023-04-10T02:16:46;19.10;69.30
41533;DHT22;27262;-35.248;149.138;2023-04-10T02:19:19;19.10;69.30
41533;DHT22;27262;-35.248;149.138;2023-04-10T02:21:50;19.10;69.20
41533;DHT22;27262;-35.248;149.138;2023-04-10T02:24:21;19.10;69.20
41533;DHT22;27262;-35.248;149.138;2023-04-10T02:26:52;19.10;69.20
41533;DHT22;27262;-35.248;149.138;2023-04-10T02:29:22;19.10;69.20
41533;DHT22;27262;-35.248;149.138;2023-04-10T02:31:52;19.10;69.20
41533;DHT22;27262;-35.248;149.138;2023-04-10T02:34:23;19.10;69.10
41533;DHT22;27262;-35.248;149.138;2023-04-10T02:36:53;19.10;69.10
41533;DHT22;27262;-35.248;149.138;2023-04-10T02:39:24;19.10;69.10
41533;DHT22;27262;-35.248;149.138;2023-04-10T02:41:55;19.10;69.10
41533;DHT22;27262;-35.248;149.138;2023-04-10T02:44:25;19.10;69.10
41533;DHT22;27262;-35.248;149.138;2023-04-10T02:46:55;19.10;69.10
41533;DHT22;27262;-35.248;149.138;2023-04-10T02:49:26;19.10;69.10
41533;DHT22;27262;-35.248;149.138;2023-04-10T02:51:56;19.10;69.10
41533;DHT22;27262;-35.248;149.138;2023-04-10T02:54:26;19.10;69.10
41533;DHT22;27262;-35.248;149.138;2023-04-10T02:56:57;19.10;69.10
41533;DHT22;27262;-35.248;149.138;2023-04-10T02:59:28;19.10;69.00
41533;DHT22;27262;-35.248;149.138;2023-04-10T03:01:58;19.10;69.00
41533;DHT22;27262;-35.248;149.138;2023-04-10T03:04:31;19.10;69.00
41533;DHT22;27262;-35.248;149.138;2023-04-10T03:07:02;19.10;69.00
41533;DHT22;27262;-35.248;149.138;2023-04-10T03:09:32;19.10;69.00
41533;DHT22;27262;-35.248;149.138;2023-04-10T03:12:03;19.10;69.00
41533;DHT22;27262;-35.248;149.138;2023-04-10T03:14:33;19.10;69.00
41533;DHT22;27262;-35.248;149.138;2023-04-10T03:17:04;19.10;68.90
41533;DHT22;27262;-35.248;149.138;2023-04-10T03:19:34;19.10;68.90
41533;DHT22;27262;-35.248;149.138;2023-04-10T03:22:04;19.10;68.90
41533;DHT22;27262;-35.248;149.138;2023-04-10T03:24:35;19.10;68.90
41533;DHT22;27262;-35.248;149.138;2023-04-10T03:27:06;19.10;68.90
41533;DHT22;27262;-35.248;149.138;2023-04-10T03:29:36;19.10;68.90
41533;DHT22;27262;-35.248;149.138;2023-04-10T03:32:07;19.10;68.90
41533;DHT22;27262;-35.248;149.138;2023-04-10T03:34:37;19.10;68.80
41533;DHT22;27262;-35.248;149.138;2023-04-10T03:37:07;19.10;68.90
41533;DHT22;27262;-35.248;149.138;2023-04-10T03:39:38;19.10;68.80
41533;DHT22;27262;-35.248;149.138;2023-04-10T03:42:08;19.10;68.80
41533;DHT22;27262;-35.248;149.138;2023-04-10T03:44:38;19.10;68.80
41533;DHT22;27262;-35.248;149.138;2023-04-10T03:47:09;19.10;68.80
41533;DHT22;27262;-35.248;149.138;2023-04-10T03:49:39;19.10;68.80
41533;DHT22;27262;-35.248;149.138;2023-04-10T03:52:09;19.10;68.70
41533;DHT22;27262;-35.248;149.138;2023-04-10T03:54:40;19.10;68.80
41533;DHT22;27262;-35.248;149.138;2023-04-10T03:57:10;19.10;68.70
41533;DHT22;27262;-35.248;149.138;2023-04-10T03:59:41;19.10;68.70
41533;DHT22;27262;-35.248;149.138;2023-04-10T04:02:11;19.10;68.60
41533;DHT22;27262;-35.248;149.138;2023-04-10T04:04:41;19.10;68.60
41533;DHT22;27262;-35.248;149.138;2023-04-10T04:07:12;19.10;68.60
41533;DHT22;27262;-35.248;149.138;2023-04-10T04:09:43;19.10;68.60
41533;DHT22;27262;-35.248;149.138;2023-04-10T04:12:32;19.10;68.60
41533;DHT22;27262;-35.248;149.138;2023-04-10T04:15:21;19.10;68.60
41533;DHT22;27262;-35.248;149.138;2023-04-10T04:17:53;19.10;68.60
41533;DHT22;27262;-35.248;149.138;2023-04-10T04:20:24;19.10;68.60
41533;DHT22;27262;-35.248;149.138;2023-04-10T04:22:54;19.10;68.60
41533;DHT22;27262;-35.248;149.138;2023-04-10T04:25:24;19.10;68.50
41533;DHT22;27262;-35.248;149.138;2023-04-10T04:27:55;19.10;68.50
41533;DHT22;27262;-35.248;149.138;2023-04-10T04:30:26;19.10;68.50
41533;DHT22;27262;-35.248;149.138;2023-04-10T04:32:56;19.10;68.60
41533;DHT22;27262;-35.248;149.138;2023-04-10T04:35:27;19.10;68.50
41533;DHT22;27262;-35.248;149.138;2023-04-10T04:37:57;19.10;68.50
41533;DHT22;27262;-35.248;149.138;2023-04-10T04:40:27;19.20;68.60
41533;DHT22;27262;-35.248;149.138;2023-04-10T04:42:57;19.20;68.60
41533;DHT22;27262;-35.248;149.138;2023-04-10T04:45:28;19.20;68.60
41533;DHT22;27262;-35.248;149.138;2023-04-10T04:47:59;19.20;68.60
41533;DHT22;27262;-35.248;149.138;2023-04-10T04:50:29;19.20;68.60
41533;DHT22;27262;-35.248;149.138;2023-04-10T04:53:00;19.20;68.60
41533;DHT22;27262;-35.248;149.138;2023-04-10T04:55:32;19.20;68.60
41533;DHT22;27262;-35.248;149.138;2023-04-10T04:58:02;19.20;68.50
41533;DHT22;27262;-35.248;149.138;2023-04-10T05:00:32;19.20;68.50
41533;DHT22;27262;-35.248;149.138;2023-04-10T05:03:02;19.20;68.50
41533;DHT22;27262;-35.248;149.138;2023-04-10T05:05:35;19.20;68.50
41533;DHT22;27262;-35.248;149.138;2023-04-10T05:08:05;19.20;68.50
41533;DHT22;27262;-35.248;149.138;2023-04-10T05:10:36;19.20;68.50
41533;DHT22;27262;-35.248;149.138;2023-04-10T05:13:07;19.20;68.50
41533;DHT22;27262;-35.248;149.138;2023-04-10T05:15:37;19.20;68.50
41533;DHT22;27262;-35.248;149.138;2023-04-10T05:18:07;19.20;68.50
41533;DHT22;27262;-35.248;149.138;2023-04-10T05:20:38;19.20;68.50
41533;DHT22;27262;-35.248;149.138;2023-04-10T05:23:09;19.20;68.40
41533;DHT22;27262;-35.248;149.138;2023-04-10T05:25:40;19.20;68.40
41533;DHT22;27262;-35.248;149.138;2023-04-10T05:28:11;19.20;68.50
41533;DHT22;27262;-35.248;149.138;2023-04-10T05:30:42;19.20;68.40
41533;DHT22;27262;-35.248;149.138;2023-04-10T05:33:12;19.20;68.40
41533;DHT22;27262;-35.248;149.138;2023-04-10T05:35:42;19.20;68.40
41533;DHT22;27262;-35.248;149.138;2023-04-10T05:38:13;19.20;68.40
41533;DHT22;27262;-35.248;149.138;2023-04-10T05:40:46;19.20;68.40
41533;DHT22;27262;-35.248;149.138;2023-04-10T05:43:17;19.30;68.40
41533;DHT22;27262;-35.248;149.138;2023-04-10T05:45:47;19.20;68.40
41533;DHT22;27262;-35.248;149.138;2023-04-10T05:48:17;19.20;68.40
41533;DHT22;27262;-35.248;149.138;2023-04-10T05:50:47;19.20;68.40
41533;DHT22;27262;-35.248;149.138;2023-04-10T05:53:19;19.30;68.40
41533;DHT22;27262;-35.248;149.138;2023-04-10T05:55:50;19.30;68.40
41533;DHT22;27262;-35.248;149.138;2023-04-10T05:58:20;19.20;68.40
41533;DHT22;27262;-35.248;149.138;2023-04-10T06:00:50;19.30;68.40
41533;DHT22;27262;-35.248;149.138;2023-04-10T06:03:21;19.30;68.40
41533;DHT22;27262;-35.248;149.138;2023-04-10T06:05:52;19.30;68.40
41533;DHT22;27262;-35.248;149.138;2023-04-10T06:08:29;19.30;68.30
41533;DHT22;27262;-35.248;149.138;2023-04-10T06:10:59;19.30;68.40
41533;DHT22;27262;-35.248;149.138;2023-04-10T06:13:29;19.30;68.40
41533;DHT22;27262;-35.248;149.138;2023-04-10T06:16:00;19.20;68.30
41533;DHT22;27262;-35.248;149.138;2023-04-10T06:18:31;19.20;68.30
41533;DHT22;27262;-35.248;149.138;2023-04-10T06:21:01;19.30;68.40
41533;DHT22;27262;-35.248;149.138;2023-04-10T06:23:31;19.30;68.30
41533;DHT22;27262;-35.248;149.138;2023-04-10T06:26:02;19.30;68.30
41533;DHT22;27262;-35.248;149.138;2023-04-10T06:28:32;19.30;68.30
41533;DHT22;27262;-35.248;149.138;2023-04-10T06:31:05;19.30;68.30
41533;DHT22;27262;-35.248;149.138;2023-04-10T06:33:36;19.30;68.20
41533;DHT22;27262;-35.248;149.138;2023-04-10T06:36:06;19.30;68.20
41533;DHT22;27262;-35.248;149.138;2023-04-10T06:38:37;19.30;68.20
41533;DHT22;27262;-35.248;149.138;2023-04-10T06:41:07;19.30;68.20
41533;DHT22;27262;-35.248;149.138;2023-04-10T06:43:38;19.20;68.10
41533;DHT22;27262;-35.248;149.138;2023-04-10T06:46:09;19.30;68.20
41533;DHT22;27262;-35.248;149.138;2023-04-10T06:48:39;19.30;68.20
41533;DHT22;27262;-35.248;149.138;2023-04-10T06:51:09;19.30;68.20
41533;DHT22;27262;-35.248;149.138;2023-04-10T06:53:40;19.30;68.10
41533;DHT22;27262;-35.248;149.138;2023-04-10T06:56:10;19.30;68.10
41533;DHT22;27262;-35.248;149.138;2023-04-10T06:58:40;19.20;68.10
41533;DHT22;27262;-35.248;149.138;2023-04-10T07:01:10;19.30;68.10
41533;DHT22;27262;-35.248;149.138;2023-04-10T07:03:41;19.20;68.10
41533;DHT22;27262;-35.248;149.138;2023-04-10T07:06:11;19.20;68.10
41533;DHT22;27262;-35.248;149.138;2023-04-10T07:08:41;19.30;68.10
41533;DHT22;27262;-35.248;149.138;2023-04-10T07:11:12;19.20;68.10
41533;DHT22;27262;-35.248;149.138;2023-04-10T07:13:42;19.20;68.10
41533;DHT22;27262;-35.248;149.138;2023-04-10T07:16:12;19.20;68.10
41533;DHT22;27262;-35.248;149.138;2023-04-10T07:18:43;19.20;68.10
41533;DHT22;27262;-35.248;149.138;2023-04-10T07:21:14;19.20;68.10
41533;DHT22;27262;-35.248;149.138;2023-04-10T07:23:45;19.20;68.00
41533;DHT22;27262;-35.248;149.138;2023-04-10T07:26:15;19.20;68.10
41533;DHT22;27262;-35.248;149.138;2023-04-10T07:28:45;19.20;68.10
41533;DHT22;27262;-35.248;149.138;2023-04-10T07:31:16;19.20;68.00
41533;DHT22;27262;-35.248;149.138;2023-04-10T07:33:47;19.20;68.00
41533;DHT22;27262;-35.248;149.138;2023-04-10T07:36:18;19.20;68.00
41533;DHT22;27262;-35.248;149.138;2023-04-10T07:38:48;19.20;68.00
41533;DHT22;27262;-35.248;149.138;2023-04-10T07:41:19;19.20;68.00
41533;DHT22;27262;-35.248;149.138;2023-04-10T07:43:50;19.20;68.00
41533;DHT22;27262;-35.248;149.138;2023-04-10T07:46:21;19.20;68.00
41533;DHT22;27262;-35.248;149.138;2023-04-10T07:48:51;19.20;68.00
41533;DHT22;27262;-35.248;149.138;2023-04-10T07:51:22;19.20;68.00
41533;DHT22;27262;-35.248;149.138;2023-04-10T07:53:53;19.20;68.00
41533;DHT22;27262;-35.248;149.138;2023-04-10T07:56:23;19.20;68.00
41533;DHT22;27262;-35.248;149.138;2023-04-10T07:58:53;19.20;68.00
41533;DHT22;27262;-35.248;149.138;2023-04-10T08:01:24;19.20;68.00
41533;DHT22;27262;-35.248;149.138;2023-04-10T08:03:54;19.20;68.70
41533;DHT22;27262;-35.248;149.138;2023-04-10T08:06:25;19.20;68.00
41533;DHT22;27262;-35.248;149.138;2023-04-10T08:08:56;19.10;67.80
41533;DHT22;27262;-35.248;149.138;2023-04-10T08:11:31;19.10;67.90
41533;DHT22;27262;-35.248;149.138;2023-04-10T08:14:05;19.10;67.80
41533;DHT22;27262;-35.248;149.138;2023-04-10T08:16:35;19.10;67.80
41533;DHT22;27262;-35.248;149.138;2023-04-10T08:19:06;19.10;67.80
41533;DHT22;27262;-35.248;149.138;2023-04-10T08:21:37;19.10;67.80
41533;DHT22;27262;-35.248;149.138;2023-04-10T08:24:07;19.10;67.80
41533;DHT22;27262;-35.248;149.138;2023-04-10T08:26:37;19.10;67.80
41533;DHT22;27262;-35.248;149.138;2023-04-10T08:29:08;19.10;67.80
41533;DHT22;27262;-35.248;149.138;2023-04-10T08:31:38;19.10;67.80
41533;DHT22;27262;-35.248;149.138;2023-04-10T08:34:08;19.10;67.80
41533;DHT22;27262;-35.248;149.138;2023-04-10T08:36:39;19.10;67.80
41533;DHT22;27262;-35.248;149.138;2023-04-10T08:39:09;19.10;67.80
41533;DHT22;27262;-35.248;149.138;2023-04-10T08:41:40;19.10;67.80
41533;DHT22;27262;-35.248;149.138;2023-04-10T08:44:11;19.10;67.70
41533;DHT22;27262;-35.248;149.138;2023-04-10T08:46:43;19.10;67.80
41533;DHT22;27262;-35.248;149.138;2023-04-10T08:49:23;19.10;67.80
41533;DHT22;27262;-35.248;149.138;2023-04-10T08:51:58;19.10;67.70
41533;DHT22;27262;-35.248;149.138;2023-04-10T08:54:37;19.10;67.80
41533;DHT22;27262;-35.248;149.138;2023-04-10T08:57:09;19.10;67.70
41533;DHT22;27262;-35.248;149.138;2023-04-10T08:59:46;19.00;67.70
41533;DHT22;27262;-35.248;149.138;2023-04-10T09:02:17;19.00;67.70
41533;DHT22;27262;-35.248;149.138;2023-04-10T09:04:50;19.00;67.70
41533;DHT22;27262;-35.248;149.138;2023-04-10T09:07:21;19.00;67.70
41533;DHT22;27262;-35.248;149.138;2023-04-10T09:09:55;19.00;67.70
41533;DHT22;27262;-35.248;149.138;2023-04-10T09:12:25;19.00;67.70
41533;DHT22;27262;-35.248;149.138;2023-04-10T09:14:56;19.00;67.70
41533;DHT22;27262;-35.248;149.138;2023-04-10T09:17:27;19.00;67.70
41533;DHT22;27262;-35.248;149.138;2023-04-10T09:19:57;19.00;67.70
41533;DHT22;27262;-35.248;149.138;2023-04-10T09:22:32;19.00;67.60
41533;DHT22;27262;-35.248;149.138;2023-04-10T09:25:04;19.00;67.60
41533;DHT22;27262;-35.248;149.138;2023-04-10T09:27:36;18.90;67.60
41533;DHT22;27262;-35.248;149.138;2023-04-10T09:30:08;18.90;67.60
41533;DHT22;27262;-35.248;149.138;2023-04-10T09:32:40;18.90;67.60
41533;DHT22;27262;-35.248;149.138;2023-04-10T09:35:12;18.90;67.60
41533;DHT22;27262;-35.248;149.138;2023-04-10T09:37:44;18.90;67.60
41533;DHT22;27262;-35.248;149.138;2023-04-10T09:40:22;18.90;67.60
41533;DHT22;27262;-35.248;149.138;2023-04-10T09:42:55;18.90;67.50
41533;DHT22;27262;-35.248;149.138;2023-04-10T09:45:25;18.90;67.60
41533;DHT22;27262;-35.248;149.138;2023-04-10T09:48:06;18.90;67.60
41533;DHT22;27262;-35.248;149.138;2023-04-10T09:50:38;18.90;67.60
41533;DHT22;27262;-35.248;149.138;2023-04-10T09:53:19;18.90;67.60
41533;DHT22;27262;-35.248;149.138;2023-04-10T09:55:50;18.90;67.60
41533;DHT22;27262;-35.248;149.138;2023-04-10T09:58:20;18.80;67.60
41533;DHT22;27262;-35.248;149.138;2023-04-10T10:00:51;18.90;68.30
41533;DHT22;27262;-35.248;149.138;2023-04-10T10:03:22;18.80;67.60
41533;DHT22;27262;-35.248;149.138;2023-04-10T10:05:54;18.80;67.60
41533;DHT22;27262;-35.248;149.138;2023-04-10T10:08:28;18.80;67.60
41533;DHT22;27262;-35.248;149.138;2023-04-10T10:11:00;18.80;67.60
41533;DHT22;27262;-35.248;149.138;2023-04-10T10:13:47;18.80;67.60
41533;DHT22;27262;-35.248;149.138;2023-04-10T10:16:28;18.80;67.50
41533;DHT22;27262;-35.248;149.138;2023-04-10T10:19:20;18.80;67.60
41533;DHT22;27262;-35.248;149.138;2023-04-10T10:21:54;18.80;67.60
41533;DHT22;27262;-35.248;149.138;2023-04-10T10:24:26;18.80;67.70
41533;DHT22;27262;-35.248;149.138;2023-04-10T10:26:59;18.80;67.70
41533;DHT22;27262;-35.248;149.138;2023-04-10T10:29:32;18.80;67.70
41533;DHT22;27262;-35.248;149.138;2023-04-10T10:32:06;18.70;67.60
41533;DHT22;27262;-35.248;149.138;2023-04-10T10:34:37;18.70;67.60
41533;DHT22;27262;-35.248;149.138;2023-04-10T10:37:07;18.70;67.70
41533;DHT22;27262;-35.248;149.138;2023-04-10T10:42:52;18.70;67.60
41533;DHT22;27262;-35.248;149.138;2023-04-10T10:45:32;18.70;67.50
41533;DHT22;27262;-35.248;149.138;2023-04-10T10:48:03;18.70;67.60
41533;DHT22;27262;-35.248;149.138;2023-04-10T10:51:01;18.60;67.60
41533;DHT22;27262;-35.248;149.138;2023-04-10T10:53:37;18.60;67.30
41533;DHT22;27262;-35.248;149.138;2023-04-10T10:58:52;18.70;67.40
41533;DHT22;27262;-35.248;149.138;2023-04-10T11:01:24;18.60;67.50
41533;DHT22;27262;-35.248;149.138;2023-04-10T11:03:54;18.60;67.50
41533;DHT22;27262;-35.248;149.138;2023-04-10T11:06:47;18.60;67.40
41533;DHT22;27262;-35.248;149.138;2023-04-10T11:12:23;18.60;67.20
41533;DHT22;27262;-35.248;149.138;2023-04-10T11:15:03;18.60;67.20
41533;DHT22;27262;-35.248;149.138;2023-04-10T11:17:50;18.60;67.30
41533;DHT22;27262;-35.248;149.138;2023-04-10T11:20:20;18.60;67.40
41533;DHT22;27262;-35.248;149.138;2023-04-10T11:25:53;18.60;67.30
41533;DHT22;27262;-35.248;149.138;2023-04-10T11:28:37;18.60;67.00
41533;DHT22;27262;-35.248;149.138;2023-04-10T11:31:21;18.70;67.00
41533;DHT22;27262;-35.248;149.138;2023-04-10T11:34:06;18.70;67.10
41533;DHT22;27262;-35.248;149.138;2023-04-10T11:36:43;18.80;67.20
41533;DHT22;27262;-35.248;149.138;2023-04-10T11:39:15;18.80;67.20
41533;DHT22;27262;-35.248;149.138;2023-04-10T11:41:50;18.80;67.20
41533;DHT22;27262;-35.248;149.138;2023-04-10T11:44:32;18.90;67.40
41533;DHT22;27262;-35.248;149.138;2023-04-10T11:47:12;18.90;67.30
41533;DHT22;27262;-35.248;149.138;2023-04-10T11:49:42;18.90;67.40
41533;DHT22;27262;-35.248;149.138;2023-04-10T11:52:27;19.00;67.40
41533;DHT22;27262;-35.248;149.138;2023-04-10T11:54:57;18.90;67.30
41533;DHT22;27262;-35.248;149.138;2023-04-10T11:57:34;19.00;67.40
41533;DHT22;27262;-35.248;149.138;2023-04-10T12:00:05;19.00;67.40
41533;DHT22;27262;-35.248;149.138;2023-04-10T12:02:50;19.00;67.40
41533;DHT22;27262;-35.248;149.138;2023-04-10T12:05:22;19.10;67.40
41533;DHT22;27262;-35.248;149.138;2023-04-10T12:08:10;19.00;67.40
41533;DHT22;27262;-35.248;149.138;2023-04-10T12:11:00;19.10;67.50
41533;DHT22;27262;-35.248;149.138;2023-04-10T12:13:56;19.10;67.50
41533;DHT22;27262;-35.248;149.138;2023-04-10T12:16:27;19.10;67.50
41533;DHT22;27262;-35.248;149.138;2023-04-10T12:18:58;19.10;67.50
41533;DHT22;27262;-35.248;149.138;2023-04-10T12:21:29;19.10;67.60
41533;DHT22;27262;-35.248;149.138;2023-04-10T12:24:00;19.10;67.50
41533;DHT22;27262;-35.248;149.138;2023-04-10T12:26:30;19.10;67.50
41533;DHT22;27262;-35.248;149.138;2023-04-10T12:29:01;19.10;67.50
41533;DHT22;27262;-35.248;149.138;2023-04-10T12:31:33;19.20;67.60
41533;DHT22;27262;-35.248;149.138;2023-04-10T12:34:05;19.20;67.60
41533;DHT22;27262;-35.248;149.138;2023-04-10T12:36:37;19.20;67.60
41533;DHT22;27262;-35.248;149.138;2023-04-10T12:39:22;19.20;67.60
41533;DHT22;27262;-35.248;149.138;2023-04-10T12:41:52;19.20;67.50
41533;DHT22;27262;-35.248;149.138;2023-04-10T12:44:23;19.20;67.60
41533;DHT22;27262;-35.248;149.138;2023-04-10T12:46:59;19.20;67.50
41533;DHT22;27262;-35.248;149.138;2023-04-10T12:49:30;19.20;67.50
41533;DHT22;27262;-35.248;149.138;2023-04-10T12:52:00;19.20;67.50
41533;DHT22;27262;-35.248;149.138;2023-04-10T12:54:32;19.20;67.50
41533;DHT22;27262;-35.248;149.138;2023-04-10T12:57:03;19.30;67.50
41533;DHT22;27262;-35.248;149.138;2023-04-10T12:59:33;19.30;67.40
41533;DHT22;27262;-35.248;149.138;2023-04-10T13:02:04;19.30;67.40
41533;DHT22;27262;-35.248;149.138;2023-04-10T13:04:34;19.30;67.40
41533;DHT22;27262;-35.248;149.138;2023-04-10T13:07:05;19.20;67.30
41533;DHT22;27262;-35.248;149.138;2023-04-10T13:09:36;19.20;67.30
41533;DHT22;27262;-35.248;149.138;2023-04-10T13:12:07;19.20;67.30
41533;DHT22;27262;-35.248;149.138;2023-04-10T13:14:37;19.20;67.30
41533;DHT22;27262;-35.248;149.138;2023-04-10T13:17:08;19.20;67.40
41533;DHT22;27262;-35.248;149.138;2023-04-10T13:19:38;19.10;67.30
41533;DHT22;27262;-35.248;149.138;2023-04-10T13:22:09;19.10;67.30
41533;DHT22;27262;-35.248;149.138;2023-04-10T13:24:40;19.10;67.30
41533;DHT22;27262;-35.248;149.138;2023-04-10T13:27:11;19.10;67.30
41533;DHT22;27262;-35.248;149.138;2023-04-10T13:29:42;19.10;67.30
41533;DHT22;27262;-35.248;149.138;2023-04-10T13:32:12;19.10;67.30
41533;DHT22;27262;-35.248;149.138;2023-04-10T13:34:43;19.10;67.30
41533;DHT22;27262;-35.248;149.138;2023-04-10T13:37:13;19.10;67.30
41533;DHT22;27262;-35.248;149.138;2023-04-10T13:39:43;19.00;67.20
41533;DHT22;27262;-35.248;149.138;2023-04-10T13:42:14;19.00;67.20
41533;DHT22;27262;-35.248;149.138;2023-04-10T13:44:44;19.00;67.30
41533;DHT22;27262;-35.248;149.138;2023-04-10T13:47:14;19.00;67.20
41533;DHT22;27262;-35.248;149.138;2023-04-10T13:49:45;19.00;67.20
41533;DHT22;27262;-35.248;149.138;2023-04-10T13:52:15;19.00;67.10
41533;DHT22;27262;-35.248;149.138;2023-04-10T13:54:46;18.90;67.10
41533;DHT22;27262;-35.248;149.138;2023-04-10T13:57:16;18.90;67.10
41533;DHT22;27262;-35.248;149.138;2023-04-10T13:59:46;18.90;67.10
41533;DHT22;27262;-35.248;149.138;2023-04-10T14:02:16;19.00;67.10
41533;DHT22;27262;-35.248;149.138;2023-04-10T14:04:47;18.90;67.10
41533;DHT22;27262;-35.248;149.138;2023-04-10T14:07:19;18.90;67.00
41533;DHT22;27262;-35.248;149.138;2023-04-10T14:09:49;18.90;67.00
41533;DHT22;27262;-35.248;149.138;2023-04-10T14:12:20;18.90;67.00
41533;DHT22;27262;-35.248;149.138;2023-04-10T14:14:51;18.90;67.00
41533;DHT22;27262;-35.248;149.138;2023-04-10T14:17:21;18.80;66.90
41533;DHT22;27262;-35.248;149.138;2023-04-10T14:19:52;18.80;66.90
41533;DHT22;27262;-35.248;149.138;2023-04-10T14:22:22;18.80;66.90
41533;DHT22;27262;-35.248;149.138;2023-04-10T14:24:53;18.80;66.90
41533;DHT22;27262;-35.248;149.138;2023-04-10T14:27:38;18.80;66.90
41533;DHT22;27262;-35.248;149.138;2023-04-10T14:30:10;18.80;66.90
41533;DHT22;27262;-35.248;149.138;2023-04-10T14:32:40;18.70;66.90
41533;DHT22;27262;-35.248;149.138;2023-04-10T14:35:11;18.70;66.90
41533;DHT22;27262;-35.248;149.138;2023-04-10T14:37:42;18.70;66.90
41533;DHT22;27262;-35.248;149.138;2023-04-10T14:40:13;18.70;66.90
41533;DHT22;27262;-35.248;149.138;2023-04-10T14:42:43;18.70;66.90
41533;DHT22;27262;-35.248;149.138;2023-04-10T14:45:14;18.70;67.00
41533;DHT22;27262;-35.248;149.138;2023-04-10T14:47:46;18.70;66.90
41533;DHT22;27262;-35.248;149.138;2023-04-10T14:50:16;18.70;67.00
41533;DHT22;27262;-35.248;149.138;2023-04-10T14:52:47;18.60;67.00
41533;DHT22;27262;-35.248;149.138;2023-04-10T14:55:18;18.60;66.90
41533;DHT22;27262;-35.248;149.138;2023-04-10T14:57:48;18.60;67.00
41533;DHT22;27262;-35.248;149.138;2023-04-10T15:00:19;18.60;67.00
41533;DHT22;27262;-35.248;149.138;2023-04-10T15:02:49;18.60;67.00
41533;DHT22;27262;-35.248;149.138;2023-04-10T15:05:20;18.60;67.00
41533;DHT22;27262;-35.248;149.138;2023-04-10T15:07:51;18.60;67.00
41533;DHT22;27262;-35.248;149.138;2023-04-10T15:10:21;18.60;67.00
41533;DHT22;27262;-35.248;149.138;2023-04-10T15:12:52;18.60;67.10
41533;DHT22;27262;-35.248;149.138;2023-04-10T15:15:22;18.50;66.90
41533;DHT22;27262;-35.248;149.138;2023-04-10T15:17:52;18.50;67.00
41533;DHT22;27262;-35.248;149.138;2023-04-10T15:20:22;18.50;67.00
41533;DHT22;27262;-35.248;149.138;2023-04-10T15:22:53;18.50;67.00
41533;DHT22;27262;-35.248;149.138;2023-04-10T15:25:23;18.50;67.00
41533;DHT22;27262;-35.248;149.138;2023-04-10T15:27:56;18.40;67.00
41533;DHT22;27262;-35.248;149.138;2023-04-10T15:30:29;18.40;66.90
41533;DHT22;27262;-35.248;149.138;2023-04-10T15:33:00;18.40;67.00
41533;DHT22;27262;-35.248;149.138;2023-04-10T15:35:30;18.40;66.90
41533;DHT22;27262;-35.248;149.138;2023-04-10T15:38:05;18.40;66.80
41533;DHT22;27262;-35.248;149.138;2023-04-10T15:40:36;18.40;66.80
41533;DHT22;27262;-35.248;149.138;2023-04-10T15:43:07;18.40;66.80
41533;DHT22;27262;-35.248;149.138;2023-04-10T15:45:37;18.30;66.80